createdAt,value
2022-10-18T00:01:04.068Z,85.77
2022-10-18T00:03:32.011Z,85.65
2022-10-18T00:05:59.521Z,85.26
2022-10-18T00:08:27.339Z,84.86
2022-10-18T00:10:55.137Z,82.86
2022-10-18T00:13:23.285Z,78.47
2022-10-18T00:15:57.420Z,74.98
2022-10-18T00:18:24.829Z,75.98
2022-10-18T00:21:03.570Z,72.46
2022-10-18T00:23:32.022Z,74.07
2022-10-18T00:26:07.413Z,73.87
2022-10-18T00:28:35.739Z,71.97
2022-10-18T00:31:16.624Z,71.53
2022-10-18T00:33:45.910Z,69.43
2022-10-18T00:36:14.851Z,64.54
2022-10-18T00:38:42.608Z,58.49
2022-10-18T00:41:13.815Z,56.31
2022-10-18T00:43:57.941Z,58.22
2022-10-18T00:46:27.668Z,56.03
2022-10-18T00:48:57.923Z,52.97
2022-10-18T00:51:44.522Z,52.97
2022-10-18T00:54:13.881Z,52.27
2022-10-18T00:56:41.905Z,52.46
2022-10-18T00:59:14.219Z,54.85
2022-10-18T01:01:41.563Z,56.36
2022-10-18T01:04:09.029Z,56.76
2022-10-18T01:07:02.865Z,59.42
2022-10-18T01:09:39.127Z,62.96
2022-10-18T01:12:41.732Z,64.52
2022-10-18T01:15:29.613Z,64.79
2022-10-18T01:18:17.158Z,65.54
2022-10-18T01:21:23.247Z,67.82
2022-10-18T01:24:16.585Z,68.80
2022-10-18T01:27:16.902Z,70.06
2022-10-18T01:30:07.351Z,70.55
2022-10-18T01:32:40.069Z,72.51
2022-10-18T01:35:17.394Z,73.84
2022-10-18T01:37:48.796Z,73.74
2022-10-18T01:40:20.789Z,71.70
2022-10-18T01:42:50.078Z,72.54
2022-10-18T01:45:17.632Z,72.17
2022-10-18T01:47:47.632Z,74.31
2022-10-18T01:50:15.363Z,74.54
2022-10-18T01:52:52.568Z,75.81
2022-10-18T01:55:28.202Z,75.94
2022-10-18T01:57:55.464Z,77.68
2022-10-18T02:00:43.141Z,77.12
2022-10-18T02:03:24.403Z,77.45
2022-10-18T02:06:11.089Z,75.63
2022-10-18T02:08:50.485Z,77.25
2022-10-18T02:11:18.857Z,77.30
2022-10-18T02:14:05.495Z,78.06
2022-10-18T02:16:42.089Z,73.48
2022-10-18T02:19:16.391Z,75.51
2022-10-18T02:21:46.652Z,70.62
2022-10-18T02:24:15.708Z,62.62
2022-10-18T02:26:43.154Z,63.02
2022-10-18T02:29:11.770Z,62.25
2022-10-18T02:31:49.097Z,64.41
2022-10-18T02:34:19.344Z,64.28
2022-10-18T02:36:53.422Z,62.99
2022-10-18T02:39:29.637Z,61.52
2022-10-18T02:41:58.355Z,61.02
2022-10-18T02:44:25.770Z,57.64
2022-10-18T02:46:54.661Z,55.81
2022-10-18T02:49:22.189Z,56.67
2022-10-18T02:51:49.570Z,59.10
2022-10-18T02:54:16.935Z,65.49
2022-10-18T02:56:44.258Z,66.81
2022-10-18T02:59:12.099Z,66.51
2022-10-18T03:01:39.520Z,68.53
2022-10-18T03:04:07.386Z,70.61
2022-10-18T03:06:34.836Z,71.05
2022-10-18T03:09:04.832Z,68.41
2022-10-18T03:11:32.921Z,69.00
2022-10-18T03:14:00.419Z,70.72
2022-10-18T03:16:27.912Z,67.25
2022-10-18T03:18:55.272Z,66.57
2022-10-18T03:21:22.610Z,69.24
2022-10-18T03:23:49.897Z,70.59
2022-10-18T03:26:17.257Z,72.05
2022-10-18T03:28:44.662Z,73.31
2022-10-18T03:31:12.026Z,74.08
2022-10-18T03:33:39.368Z,74.13
2022-10-18T03:36:06.770Z,73.81
2022-10-18T03:38:34.146Z,73.94
2022-10-18T03:41:01.483Z,73.42
2022-10-18T03:43:28.841Z,74.13
2022-10-18T03:45:56.205Z,74.37
2022-10-18T03:48:23.794Z,74.38
2022-10-18T03:50:51.035Z,74.64
2022-10-18T03:53:18.461Z,74.73
2022-10-18T03:55:50.386Z,70.18
2022-10-18T03:58:17.703Z,62.18
2022-10-18T04:00:45.011Z,60.79
2022-10-18T04:03:12.391Z,58.28
2022-10-18T04:05:41.104Z,56.40
2022-10-18T04:08:08.456Z,52.93
2022-10-18T04:10:38.861Z,52.81
2022-10-18T04:13:07.205Z,52.86
2022-10-18T04:15:34.911Z,52.35
2022-10-18T04:18:02.706Z,52.32
2022-10-18T04:20:30.239Z,52.59
2022-10-18T04:22:58.301Z,54.16
2022-10-18T04:25:25.919Z,54.67
2022-10-18T04:27:53.236Z,55.54
2022-10-18T04:30:20.577Z,55.85
2022-10-18T04:32:48.067Z,56.77
2022-10-18T04:35:15.434Z,57.09
2022-10-18T04:37:42.796Z,57.55
2022-10-18T04:40:10.682Z,55.03
2022-10-18T04:42:38.065Z,54.55
2022-10-18T04:45:05.779Z,53.63
2022-10-18T04:47:33.336Z,55.08
2022-10-18T04:50:00.914Z,55.93
2022-10-18T04:52:28.181Z,56.17
2022-10-18T04:54:55.568Z,56.47
2022-10-18T04:57:22.960Z,57.67
2022-10-18T04:59:50.323Z,55.24
2022-10-18T05:02:17.736Z,51.33
2022-10-18T05:04:45.082Z,52.28
2022-10-18T05:07:12.400Z,51.67
2022-10-18T05:09:40.188Z,52.63
2022-10-18T05:12:07.595Z,51.03
2022-10-18T05:14:34.892Z,50.46
2022-10-18T05:17:02.359Z,51.52
2022-10-18T05:19:29.629Z,52.03
2022-10-18T05:21:56.936Z,51.98
2022-10-18T05:24:26.997Z,50.00
2022-10-18T05:26:55.470Z,49.78
2022-10-18T05:29:23.177Z,49.68
2022-10-18T05:31:51.058Z,49.75
2022-10-18T05:34:18.981Z,50.57
2022-10-18T05:36:46.780Z,50.41
2022-10-18T05:39:14.126Z,50.59
2022-10-18T05:41:41.409Z,52.07
2022-10-18T05:44:08.755Z,52.95
2022-10-18T05:46:36.063Z,56.69
2022-10-18T05:49:03.466Z,59.45
2022-10-18T05:51:30.741Z,60.39
2022-10-18T05:53:59.043Z,60.94
2022-10-18T05:56:26.648Z,60.12
2022-10-18T05:58:54.065Z,61.43
2022-10-18T06:01:21.523Z,59.24
2022-10-18T06:03:49.156Z,59.78
2022-10-18T06:06:18.874Z,55.04
2022-10-18T06:08:49.963Z,55.30
2022-10-18T06:11:19.379Z,60.66
2022-10-18T06:13:51.514Z,58.10
2022-10-18T06:16:21.134Z,60.76
2022-10-18T06:18:50.102Z,57.88
2022-10-18T06:21:18.362Z,58.76
2022-10-18T06:23:50.353Z,58.70
2022-10-18T06:26:17.864Z,59.85
2022-10-18T06:28:45.574Z,56.27
2022-10-18T06:31:14.085Z,57.91
2022-10-18T06:33:41.607Z,54.83
2022-10-18T06:36:14.388Z,54.30
2022-10-18T06:38:42.119Z,54.38
2022-10-18T06:41:10.965Z,53.89
2022-10-18T06:43:39.100Z,50.87
2022-10-18T06:46:08.341Z,48.02
2022-10-18T06:48:37.240Z,49.54
2022-10-18T06:51:06.880Z,47.22
2022-10-18T06:53:48.589Z,47.31
2022-10-18T06:56:24.552Z,46.40
2022-10-18T06:58:51.920Z,46.45
2022-10-18T07:01:20.063Z,44.79
2022-10-18T07:03:48.726Z,45.36
2022-10-18T07:06:18.731Z,44.94
2022-10-18T07:08:50.243Z,46.61
2022-10-18T07:11:20.808Z,45.58
2022-10-18T07:13:48.142Z,43.97
2022-10-18T07:16:18.622Z,45.11
2022-10-18T07:18:52.304Z,45.30
2022-10-18T07:21:26.006Z,44.69
2022-10-18T07:23:54.089Z,42.38
2022-10-18T07:26:24.986Z,42.19
2022-10-18T07:28:55.575Z,42.87
2022-10-18T07:31:23.582Z,41.85
2022-10-18T07:33:51.269Z,41.61
2022-10-18T07:36:21.438Z,41.82
2022-10-18T07:38:49.955Z,40.89
2022-10-18T07:41:17.332Z,41.94
2022-10-18T07:43:47.461Z,41.67
2022-10-18T07:46:18.316Z,40.73
2022-10-18T07:48:45.738Z,41.01
2022-10-18T07:51:13.583Z,40.25
2022-10-18T07:53:41.806Z,38.87
2022-10-18T07:56:16.267Z,39.87
2022-10-18T07:58:45.600Z,39.93
2022-10-18T08:01:14.012Z,40.17
2022-10-18T08:03:43.125Z,39.07
2022-10-18T08:06:12.488Z,37.34
2022-10-18T08:08:41.025Z,38.59
2022-10-18T08:11:12.720Z,36.94
2022-10-18T08:13:40.092Z,34.50
2022-10-18T08:16:13.269Z,38.29
2022-10-18T08:18:40.886Z,37.75
2022-10-18T08:21:14.662Z,38.94
2022-10-18T08:23:44.018Z,41.13
2022-10-18T08:26:18.051Z,42.72
2022-10-18T08:28:53.963Z,41.85
2022-10-18T08:31:26.331Z,38.27
2022-10-18T08:33:57.441Z,39.45
2022-10-18T08:36:25.065Z,34.07
2022-10-18T08:38:52.468Z,35.05
2022-10-18T08:41:28.692Z,35.94
2022-10-18T08:44:07.768Z,36.39
2022-10-18T08:46:37.752Z,33.25
2022-10-18T08:49:07.565Z,33.51
2022-10-18T08:51:45.903Z,32.79
2022-10-18T08:54:16.224Z,31.83
2022-10-18T08:56:48.005Z,30.59
2022-10-18T08:59:15.642Z,30.12
2022-10-18T09:02:03.017Z,31.13
2022-10-18T09:04:58.080Z,30.08
2022-10-18T09:07:51.771Z,31.31
2022-10-18T09:10:31.533Z,29.20
2022-10-18T09:13:23.804Z,30.99
2022-10-18T09:16:01.251Z,32.31
2022-10-18T09:19:00.962Z,31.75
2022-10-18T09:21:43.748Z,31.42
2022-10-18T09:24:21.439Z,28.63
2022-10-18T09:26:52.401Z,29.17
2022-10-18T09:29:28.829Z,28.24
2022-10-18T09:32:14.767Z,28.50
2022-10-18T09:34:59.979Z,29.67
2022-10-18T09:37:30.758Z,28.82
2022-10-18T09:40:18.061Z,28.71
2022-10-18T09:43:12.051Z,29.08
2022-10-18T09:45:45.829Z,29.96
2022-10-18T09:48:18.954Z,27.80
2022-10-18T09:50:55.284Z,27.25
2022-10-18T09:53:54.834Z,27.60
2022-10-18T09:56:49.288Z,26.69
2022-10-18T09:59:31.879Z,26.94
2022-10-18T10:01:59.317Z,26.94
2022-10-18T10:04:27.388Z,27.09
2022-10-18T10:06:56.675Z,27.01
2022-10-18T10:09:38.500Z,27.07
2022-10-18T10:12:05.938Z,26.25
2022-10-18T10:14:44.221Z,26.25
2022-10-18T10:17:31.481Z,26.59
2022-10-18T10:20:18.538Z,26.35
2022-10-18T10:22:50.488Z,26.21
2022-10-18T10:25:38.383Z,26.20
2022-10-18T10:28:18.443Z,26.14
2022-10-18T10:30:45.839Z,25.56
2022-10-18T10:33:39.375Z,27.31
2022-10-18T10:36:20.375Z,27.31
2022-10-18T10:39:04.863Z,27.87
2022-10-18T10:44:14.317Z,26.93
2022-10-18T10:46:43.517Z,26.51
2022-10-18T10:49:41.491Z,27.44
2022-10-18T10:52:27.407Z,26.91
2022-10-18T10:55:06.105Z,26.92
2022-10-18T10:57:48.843Z,27.20
2022-10-18T11:00:34.538Z,27.54
2022-10-18T11:03:28.624Z,26.58
2022-10-18T11:05:58.148Z,27.62
2022-10-18T11:08:31.819Z,27.83
2022-10-18T11:11:23.154Z,27.58
2022-10-18T11:14:13.572Z,27.23
2022-10-18T11:17:18.032Z,26.96
2022-10-18T11:19:56.267Z,26.96
2022-10-18T11:22:28.187Z,27.45
2022-10-18T11:24:55.803Z,28.16
2022-10-18T11:27:28.717Z,27.32
2022-10-18T11:30:16.190Z,26.96
2022-10-18T11:33:18.942Z,26.34
2022-10-18T11:36:09.461Z,27.02
2022-10-18T11:38:52.050Z,27.44
2022-10-18T11:41:52.011Z,26.78
2022-10-18T11:44:46.314Z,27.31
2022-10-18T11:47:13.512Z,26.87
2022-10-18T11:49:49.870Z,26.26
2022-10-18T11:52:40.297Z,24.87
2022-10-18T11:55:32.771Z,23.37
2022-10-18T11:58:25.882Z,23.72
2022-10-18T12:01:03.896Z,25.48
2022-10-18T12:03:54.758Z,26.04
2022-10-18T12:06:26.725Z,27.42
2022-10-18T12:09:02.801Z,27.24
2022-10-18T12:11:41.841Z,27.13
2022-10-18T12:14:26.243Z,27.26
2022-10-18T12:17:20.179Z,27.92
2022-10-18T12:19:46.455Z,29.22
2022-10-18T12:22:21.584Z,29.51
2022-10-18T12:24:48.950Z,30.52
2022-10-18T12:27:17.280Z,29.95
2022-10-18T12:30:00.843Z,30.43
2022-10-18T12:32:35.248Z,30.74
2022-10-18T12:35:10.372Z,31.04
2022-10-18T12:37:56.429Z,31.63
2022-10-18T12:40:44.254Z,31.72
2022-10-18T12:43:21.652Z,32.58
2022-10-18T12:45:59.000Z,32.65
2022-10-18T12:48:34.904Z,33.38
2022-10-18T12:51:15.403Z,33.85
2022-10-18T12:53:46.322Z,33.15
2022-10-18T12:56:28.935Z,32.82
2022-10-18T12:59:17.393Z,33.08
2022-10-18T13:01:51.046Z,32.75
2022-10-18T13:04:33.933Z,33.37
2022-10-18T13:07:03.212Z,33.12
2022-10-18T13:09:44.714Z,33.13
2022-10-18T13:12:13.167Z,33.71
2022-10-18T13:15:25.926Z,33.44
2022-10-18T13:18:05.171Z,33.93
2022-10-18T13:20:41.035Z,33.89
2022-10-18T13:23:11.238Z,34.23
2022-10-18T13:25:57.231Z,33.72
2022-10-18T13:28:51.012Z,34.01
2022-10-18T13:31:43.057Z,33.94
2022-10-18T13:34:25.143Z,33.25
2022-10-18T13:37:01.835Z,32.96
2022-10-18T13:39:30.851Z,32.36
2022-10-18T13:41:58.237Z,31.76
2022-10-18T13:44:40.145Z,30.80
2022-10-18T13:47:07.392Z,28.94
2022-10-18T13:49:40.833Z,28.78
2022-10-18T13:52:25.684Z,28.97
2022-10-18T13:55:30.336Z,28.84
2022-10-18T13:58:48.987Z,28.06
2022-10-18T14:01:38.981Z,29.10
2022-10-18T14:04:27.067Z,28.27
2022-10-18T14:07:02.201Z,29.94
2022-10-18T14:09:44.522Z,32.12
2022-10-18T14:12:12.742Z,34.75
2022-10-18T14:14:46.511Z,37.49
2022-10-18T14:17:32.501Z,38.58
2022-10-18T14:20:21.592Z,39.06
2022-10-18T14:23:14.525Z,39.55
2022-10-18T14:25:42.182Z,39.32
2022-10-18T14:28:36.325Z,38.97
2022-10-18T14:31:20.120Z,39.40
2022-10-18T14:33:57.293Z,39.62
2022-10-18T14:36:41.005Z,40.58
2022-10-18T14:39:20.173Z,42.11
2022-10-18T14:41:58.763Z,42.59
2022-10-18T14:44:31.086Z,41.17
2022-10-18T14:47:02.936Z,40.87
2022-10-18T14:49:31.152Z,41.17
2022-10-18T14:52:00.746Z,40.76
2022-10-18T14:54:38.395Z,41.42
2022-10-18T14:57:07.118Z,41.51
2022-10-18T14:59:43.828Z,41.67
2022-10-18T15:02:17.887Z,42.45
2022-10-18T15:04:46.765Z,43.04
2022-10-18T15:07:17.984Z,43.40
2022-10-18T15:09:47.605Z,43.80
2022-10-18T15:12:16.466Z,44.75
2022-10-18T15:14:45.723Z,45.95
2022-10-18T15:17:21.961Z,46.43
2022-10-18T15:20:18.184Z,48.17
2022-10-18T15:22:47.046Z,49.58
2022-10-18T15:25:21.886Z,50.43
2022-10-18T15:27:55.771Z,50.55
2022-10-18T15:30:28.424Z,50.91
2022-10-18T15:33:01.309Z,50.80
2022-10-18T15:35:37.299Z,51.17
2022-10-18T15:38:36.964Z,51.64
2022-10-18T15:41:37.165Z,53.14
2022-10-18T15:44:26.002Z,54.30
2022-10-18T15:46:57.008Z,55.33
2022-10-18T15:49:24.325Z,56.58
2022-10-18T15:52:26.549Z,57.96
2022-10-18T15:54:53.889Z,59.11
2022-10-18T15:57:21.760Z,61.39
2022-10-18T15:59:58.336Z,62.52
2022-10-18T16:02:25.915Z,63.41
2022-10-18T16:04:53.207Z,65.68
2022-10-18T16:07:20.725Z,66.51
2022-10-18T16:09:48.215Z,67.20
2022-10-18T16:12:15.627Z,68.54
2022-10-18T16:14:43.123Z,69.47
2022-10-18T16:17:19.179Z,70.03
2022-10-18T16:19:46.630Z,71.60
2022-10-18T16:24:46.838Z,73.48
2022-10-18T16:27:14.095Z,74.30
2022-10-18T16:29:42.014Z,75.99
2022-10-18T16:32:09.381Z,76.47
2022-10-18T16:34:36.670Z,77.80
2022-10-18T16:37:04.178Z,79.04
2022-10-18T16:39:35.073Z,79.85
2022-10-18T16:42:02.520Z,80.81
2022-10-18T16:44:29.799Z,81.51
2022-10-18T16:46:57.137Z,82.29
2022-10-18T16:49:26.400Z,82.40
2022-10-18T16:51:55.032Z,82.69
2022-10-18T16:54:22.873Z,82.97
2022-10-18T16:56:51.028Z,83.19
2022-10-18T16:59:30.205Z,83.60
2022-10-18T17:01:57.979Z,83.61
2022-10-18T17:04:25.393Z,84.41
2022-10-18T17:06:55.013Z,85.34
2022-10-18T17:09:22.459Z,85.11
2022-10-18T17:11:50.240Z,85.58
2022-10-18T17:14:17.816Z,85.53
2022-10-18T17:16:48.236Z,86.02
2022-10-18T17:19:20.299Z,86.09
2022-10-18T17:21:47.706Z,86.30
2022-10-18T17:24:15.104Z,86.57
2022-10-18T17:26:42.510Z,87.55
2022-10-18T17:29:10.252Z,87.10
2022-10-18T17:31:37.686Z,87.66
2022-10-18T17:34:05.010Z,88.13
2022-10-18T17:36:33.469Z,88.82
2022-10-18T17:39:00.982Z,89.19
2022-10-18T17:41:28.622Z,89.60
2022-10-18T17:43:56.014Z,90.03
2022-10-18T17:46:26.539Z,90.75
2022-10-18T17:48:55.092Z,91.13
2022-10-18T17:51:22.945Z,91.49
2022-10-18T17:53:50.379Z,91.60
2022-10-18T17:56:17.737Z,91.98
2022-10-18T17:58:45.935Z,92.70
2022-10-18T18:01:13.487Z,92.98
2022-10-18T18:03:41.646Z,92.96
2022-10-18T18:06:31.555Z,92.67
2022-10-18T18:09:01.177Z,92.92
2022-10-18T18:11:29.272Z,93.34
2022-10-18T18:13:56.952Z,93.53
2022-10-18T18:16:26.769Z,93.73
2022-10-18T18:18:56.453Z,93.68
2022-10-18T18:21:26.032Z,92.65
2022-10-18T18:23:53.999Z,92.28
2022-10-18T18:26:22.012Z,90.32
2022-10-18T18:28:49.817Z,85.39
2022-10-18T18:31:25.791Z,83.25
2022-10-18T18:33:55.352Z,79.85
2022-10-18T18:36:24.085Z,77.58
2022-10-18T18:38:56.899Z,76.25
2022-10-18T18:41:27.595Z,74.73
2022-10-18T18:44:01.558Z,74.15
2022-10-18T18:46:33.232Z,73.39
2022-10-18T18:49:01.200Z,72.94
2022-10-18T18:51:29.151Z,74.14
2022-10-18T18:53:56.563Z,73.90
2022-10-18T18:56:27.442Z,73.62
2022-10-18T18:58:55.807Z,73.24
2022-10-18T19:01:26.049Z,72.86
2022-10-18T19:03:55.670Z,72.22
2022-10-18T19:06:36.945Z,72.07
2022-10-18T19:09:23.060Z,72.23
2022-10-18T19:11:53.214Z,72.63
2022-10-18T19:16:54.381Z,72.74
2022-10-18T19:19:24.016Z,72.58
2022-10-18T19:21:54.039Z,72.46
2022-10-18T19:24:23.805Z,72.72
2022-10-18T19:26:56.632Z,72.51
2022-10-18T19:29:29.740Z,72.12
2022-10-18T19:31:59.439Z,72.62
2022-10-18T19:34:28.810Z,73.01
2022-10-18T19:36:56.891Z,73.67
2022-10-18T19:39:26.725Z,73.45
2022-10-18T19:41:56.271Z,74.43
2022-10-18T19:44:25.740Z,74.07
2022-10-18T19:46:53.234Z,74.19
2022-10-18T19:49:20.851Z,74.20
2022-10-18T19:51:48.723Z,73.20
2022-10-18T19:54:16.735Z,73.04
2022-10-18T19:56:44.823Z,73.17
2022-10-18T19:59:14.124Z,73.69
2022-10-18T20:01:42.061Z,74.22
2022-10-18T20:04:10.960Z,74.46
2022-10-18T20:06:39.355Z,74.17
2022-10-18T20:09:08.086Z,74.40
2022-10-18T20:11:35.780Z,74.79
2022-10-18T20:14:05.671Z,76.01
2022-10-18T20:16:33.991Z,76.21
2022-10-18T20:19:04.326Z,76.32
2022-10-18T20:21:36.087Z,77.58
2022-10-18T20:24:05.799Z,77.87
2022-10-18T20:26:34.787Z,77.26
2022-10-18T20:29:02.402Z,78.26
2022-10-18T20:31:32.319Z,77.93
2022-10-18T20:34:05.073Z,78.94
2022-10-18T20:36:33.317Z,79.41
2022-10-18T20:39:00.866Z,80.14
2022-10-18T20:41:34.286Z,79.97
2022-10-18T20:44:05.026Z,80.18
2022-10-18T20:46:35.302Z,80.40
2022-10-18T20:49:03.462Z,80.18
2022-10-18T20:51:31.335Z,80.15
2022-10-18T20:54:00.084Z,79.42
2022-10-18T20:56:27.667Z,78.16
2022-10-18T20:58:57.328Z,77.06
2022-10-18T21:01:27.779Z,77.02
2022-10-18T21:03:57.820Z,74.52
2022-10-18T21:06:28.026Z,74.21
2022-10-18T21:09:03.862Z,73.42
2022-10-18T21:11:32.305Z,72.86
2022-10-18T21:14:02.953Z,72.67
2022-10-18T21:16:32.556Z,72.42
2022-10-18T21:19:06.742Z,72.48
2022-10-18T21:21:34.307Z,72.00
2022-10-18T21:24:05.343Z,73.10
2022-10-18T21:26:36.066Z,73.97
2022-10-18T21:29:05.107Z,74.23
2022-10-18T21:31:38.362Z,73.50
2022-10-18T21:34:13.149Z,73.96
2022-10-18T21:36:41.847Z,72.82
2022-10-18T21:39:13.311Z,71.97
2022-10-18T21:41:40.991Z,71.94
2022-10-18T21:44:10.717Z,72.58
2022-10-18T21:46:39.823Z,71.89
2022-10-18T21:49:08.194Z,70.93
2022-10-18T21:51:36.444Z,70.57
2022-10-18T21:54:04.376Z,71.11
2022-10-18T21:56:33.796Z,71.46
2022-10-18T21:59:02.382Z,70.21
2022-10-18T22:01:33.036Z,71.20
2022-10-18T22:04:02.564Z,71.15
2022-10-18T22:06:33.013Z,71.41
2022-10-18T22:09:07.509Z,70.02
2022-10-18T22:11:39.398Z,70.08
2022-10-18T22:14:06.799Z,71.28
2022-10-18T22:16:34.122Z,69.91
2022-10-18T22:19:03.023Z,71.16
2022-10-18T22:21:30.480Z,71.77
2022-10-18T22:23:58.335Z,72.05
2022-10-18T22:26:31.279Z,72.44
2022-10-18T22:29:01.575Z,72.59
2022-10-18T22:31:31.844Z,71.72
2022-10-18T22:34:01.703Z,71.70
2022-10-18T22:36:29.552Z,71.70
2022-10-18T22:38:57.405Z,72.40
2022-10-18T22:41:27.930Z,71.64
2022-10-18T22:43:57.299Z,72.12
2022-10-18T22:46:27.166Z,73.15
2022-10-18T22:48:54.751Z,73.48
2022-10-18T22:51:22.108Z,73.15
2022-10-18T22:53:49.901Z,72.03
2022-10-18T22:56:20.287Z,71.60
2022-10-18T22:58:51.023Z,71.81
2022-10-18T23:01:21.229Z,70.47
2022-10-18T23:03:54.056Z,70.34
2022-10-18T23:06:33.549Z,69.54
2022-10-18T23:09:05.912Z,69.66
2022-10-18T23:11:34.784Z,68.97
2022-10-18T23:14:04.022Z,69.11
2022-10-18T23:16:31.787Z,70.12
2022-10-18T23:18:59.821Z,68.01
2022-10-18T23:21:29.061Z,67.72
2022-10-18T23:23:57.547Z,67.66
2022-10-18T23:26:26.993Z,66.82
2022-10-18T23:28:54.744Z,66.48
2022-10-18T23:31:25.333Z,67.24
2022-10-18T23:33:54.917Z,66.50
2022-10-18T23:36:23.181Z,66.05
2022-10-18T23:38:50.817Z,65.79
2022-10-18T23:41:18.835Z,66.18
2022-10-18T23:43:46.755Z,66.24
2022-10-18T23:46:15.572Z,66.57
2022-10-18T23:48:42.893Z,66.02
2022-10-18T23:51:10.781Z,65.62
2022-10-18T23:53:38.825Z,66.73
2022-10-18T23:56:09.958Z,66.76
2022-10-18T23:58:38.460Z,66.29
